Share

Montes Claros, Brazil

Montes Claros (SBMK) Elev 2188 ft | 16.71 °S, 43.82 °W | Change Station

Current weather conditions updated 2 hours ago

Clear
Clear
70 °F
Feels Like 70 °F
N
4
Wind Variable Wind from NE
Sunrise 6:04 AM
Sunset 5:44 PM
Moon Waning Gibbous

Today is forecast to be nearly the same temperature as yesterday.

Pressure 30.04 in
Visibility -9999.0 miles
Clouds
Dew Point 63 °F
Humidity 78%
Rainfall 0.00 in
Snow Depth Not available.
UV Not available.
Pollen Not available.
Air Quality Not available.
Flu Activity Not available.
METAR SBMK 190400Z 05003KT CAVOK 21/17 Q1017

More Conditions Fewer Conditions

Pressure 30.04 in
Visibility -9999.0 miles
Clouds
Dew Point 63 °F
Humidity 78%
Rainfall 0.00 in
Snow Depth Not available.
UV Not available.
Pollen Not available.
Air Quality Not available.
Flu Activity Not available.
METAR SBMK 190400Z 05003KT CAVOK 21/17 Q1017

More Conditions Fewer Conditions

10-Day Weather Forecast

Almanac

Astronomy

Apr. 19, 2014 Rise Set
Actual Time 6:04 AM BRT 5:44 PM BRT
Civil Twilight 5:42 AM BRT 6:06 PM BRT
Nautical Twilight 5:17 AM BRT 6:31 PM BRT
Astronomical Twilight 4:52 AM BRT 6:56 PM BRT
Moon 9:38 PM BRT 9:57 AM BRT
Length of Visible Light 12h 23m
Length of Day
11h 39m
Tomorrow will be 0m 51s shorter.
Waning Gibbous, 82% of the Moon is Illuminated
Today
Waning Gibbous
Apr 22
Last Quarter
Apr 29
New
May 6
First Quarter
May 14
Full

Yesterday's Extremes

Country Highs Country Lows

Community

  • Sunset Silhouettes
    Sunset Silhouettes
  • FL sunset Perico Isle
    FL sunset Perico Isle
  • Cloudy spring view
    Cloudy spring view
  • Old barn
    Old barn
  • What's for Lunch?
    What's for Lunch?

WunderPhotos

Upload Photos

1,702,653 photos uploaded!

WunderBlogs® & News

Nearby

Snow Depth

Not available.

Coastal Water Temperatures

Place Temperature
No Stations Reporting

Earthquake Activity

City Distance Mag. Time & Date
No recent earthquake activity has been reported nearby.
Minimum magnitude displayed is 2.5.

Nearby Weather Stations

There are no personal weather stations in this area.

What do you think?

We're not finished. Please let us know what you like, what you don't like, and what you are still missing.